Marstown, Pennsylvania
Current Conditions -  °F | °C
As of 12:30 AM on Thursday 27 Nov 2014 (Local Time) from KMUI Reporting Station
Overcast Overcast  
Wind Chill: 34°   Ceiling: 6000
Heat Index: 34°   Visibility: 10mi
Dew Point: 28°   Wind: 2mph
Humidity: 81%   Direction: NA
Pressure: 29.96"   Gusts: NA
Location:  40.5592°N, 76.3347°W
Report Text: KMUI 270530Z AUTO VRB02KT 10SM SCT018 OVC060 01/M02 A2996 RMK AO2 $
Loading
Personal Weather Stations






























Interactive Weather Map New forecast layout! Learn more

10-Day Weather Forecast

Advertisements
Track Severe Weather on mobile